Latest Weather Observations for Hunters Hill

IDV60801

Issued at 11:02 pm EST Saturday 18 April 2015 (issued every 30 minutes, with the page automatically refreshed every 10 minutes)

About weather observations | Map of weather stations | Latest weather observations for VIC | Other Formats
Station Details ID: 082139 Name: HUNTERS HILL Lat: -36.21 Lon: 147.54 Height: 981.0 m
Data from the previous 72 hours. | See also: Recent months at Hunters Hill
Date/Time
EST
Temp
°C
App
Temp
°C
Dew
Point
Rel
Hum
%
Delta-T
°C
Wind Press
QNH
hPa
Press
MSL
hPa
Rain
since 9 am
mm
Dir
 
Spd
km/h
Gust
km/h
Spd
kts
Gust
kts
18/11:00pm 8.1 5.6 8.1 100 0.0 WSW 11 26 6 14 - - 21.6
18/10:30pm 8.7 5.9 8.7 100 0.0 W 13 22 7 12 - - 21.6
18/10:00pm 9.3 7.1 9.3 100 0.0 W 11 24 6 13 - - 21.6
18/09:30pm 9.6 7.1 9.6 100 0.0 W 13 24 7 13 - - 21.6
18/09:00pm 10.3 8.7 10.3 100 0.0 W 9 20 5 11 - - 21.6
18/08:30pm 10.9 9.1 10.9 100 0.0 W 11 22 6 12 - - 21.6
18/08:00pm 11.2 10.3 11.2 100 0.0 W 7 15 4 8 - - 21.6
18/07:30pm 11.4 10.1 11.4 100 0.0 W 9 17 5 9 - - 21.6
18/07:00pm 11.5 10.6 11.5 100 0.0 W 7 15 4 8 - - 21.6
18/06:30pm 11.7 9.8 11.7 100 0.0 W 13 28 7 15 - - 21.6
18/06:00pm 12.1 10.3 12.1 100 0.0 W 13 28 7 15 - - 21.6
18/05:30pm 12.1 11.0 12.1 100 0.0 W 9 22 5 12 - - 21.2
18/05:00pm 12.0 10.2 12.0 100 0.0 W 13 24 7 13 - - 21.2
18/04:30pm 12.1 10.7 12.1 100 0.0 W 11 22 6 12 - - 20.8
18/04:00pm 12.0 10.5 12.0 100 0.0 W 11 22 6 12 - - 17.4
18/03:30pm 12.0 10.5 12.0 100 0.0 W 11 35 6 19 - - 11.4
18/03:00pm 13.4 10.7 13.4 100 0.0 NNW 20 41 11 22 - - 5.2
18/02:30pm 13.4 11.2 13.4 100 0.0 NNW 17 35 9 19 - - 5.0
18/02:00pm 13.3 11.9 13.3 100 0.0 NNW 13 35 7 19 - - 3.2
18/01:30pm 13.2 11.7 13.2 100 0.0 NNW 13 30 7 16 - - 3.0
18/01:00pm 13.2 11.0 13.2 100 0.0 NNW 17 35 9 19 - - 2.4
18/12:30pm 13.2 11.4 13.2 100 0.0 NNW 15 26 8 14 - - 2.2
18/12:00pm 13.0 11.1 13.0 100 0.0 NNW 15 28 8 15 - - 2.2
18/11:30am 13.0 10.3 13.0 100 0.0 NNW 19 37 10 20 - - 2.2
18/11:00am 12.8 10.4 12.8 100 0.0 NNW 17 32 9 17 - - 2.2
18/10:30am 12.7 11.5 12.7 100 0.0 N 11 26 6 14 - - 1.6
18/10:00am 12.4 11.4 12.4 100 0.0 NW 9 19 5 10 - - 0.8
18/09:30am 12.3 10.9 12.3 100 0.0 NW 11 28 6 15 - - 0.6
18/09:00am 12.3 11.3 12.3 100 0.0 WNW 9 20 5 11 - - 44.2
18/08:30am 12.4 10.7 12.4 100 0.0 NW 13 28 7 15 - - 43.4
18/08:00am 12.5 11.2 12.5 100 0.0 NW 11 20 6 11 - - 43.2
18/07:30am 12.7 11.1 12.7 100 0.0 WNW 13 20 7 11 - - 42.2
18/07:00am 13.1 10.8 13.1 100 0.0 NW 17 33 9 18 - - 41.4
18/06:30am 12.9 11.0 12.9 100 0.0 NW 15 26 8 14 - - 40.6
18/06:00am 12.8 12.0 12.8 100 0.0 WNW 9 20 5 11 - - 37.6
18/05:30am 12.8 12.3 12.8 100 0.0 NW 7 13 4 7 - - 30.6
18/05:00am 12.9 12.5 12.9 100 0.0 NW 7 17 4 9 - - 29.4
18/04:30am 12.8 12.5 12.8 100 0.0 N 6 13 3 7 - - 28.4
18/04:00am 12.8 12.5 12.8 100 0.0 NNW 6 13 3 7 - - 28.2
18/03:30am 12.7 12.2 12.7 100 0.0 NW 7 17 4 9 - - 27.0
18/03:00am 13.0 12.8 13.0 100 0.0 N 6 13 3 7 - - 24.2
18/02:30am 13.0 13.2 13.0 100 0.0 N 4 7 2 4 - - 22.6
18/02:00am 13.0 13.2 13.0 100 0.0 NNE 4 7 2 4 - - 22.4
18/01:30am 13.0 12.8 13.0 100 0.0 NNE 6 9 3 5 - - 22.2
18/01:00am 13.0 12.6 13.0 100 0.0 N 7 15 4 8 - - 21.8
18/12:30am 13.1 13.3 13.1 100 0.0 NW 4 11 2 6 - - 19.6
18/12:00am 13.1 12.4 13.1 100 0.0 N 9 17 5 9 - - 19.2
 
Date/Time
EST
Temp
°C
App
Temp
°C
Dew
Point
Rel
Hum
%
Delta-T
°C
Wind Press
QNH
hPa
Press
MSL
hPa
Rain
since 9 am
mm
Dir
 
Spd
km/h
Gust
km/h
Spd
kts
Gust
kts
17/11:30pm 13.1 12.0 13.1 100 0.0 N 11 22 6 12 - - 18.4
17/11:00pm 13.2 11.0 13.2 100 0.0 N 17 28 9 15 - - 17.2
17/10:30pm 13.1 11.2 13.1 100 0.0 N 15 32 8 17 - - 16.4
17/10:00pm 13.2 11.4 13.2 100 0.0 N 15 37 8 20 - - 15.4
17/09:30pm 13.1 11.6 13.1 100 0.0 N 13 24 7 13 - - 14.0
17/09:00pm 13.1 12.4 13.1 100 0.0 N 9 26 5 14 - - 13.0
17/08:30pm 13.0 11.9 13.0 100 0.0 NNE 11 20 6 11 - - 11.4
17/08:00pm 12.9 11.7 12.9 100 0.0 NNE 11 24 6 13 - - 11.2
17/07:30pm 12.9 11.7 12.9 100 0.0 NNE 11 24 6 13 - - 10.8
17/07:00pm 12.8 12.0 12.8 100 0.0 NNE 9 20 5 11 - - 10.6
17/06:30pm 12.7 11.8 12.7 100 0.0 N 9 17 5 9 - - 9.4
17/06:00pm 12.6 10.9 12.6 100 0.0 NNE 13 24 7 13 - - 9.0
17/05:30pm 12.6 11.7 12.6 100 0.0 NNE 9 24 5 13 - - 8.2
17/05:00pm 12.5 12.0 12.5 100 0.0 NNE 7 17 4 9 - - 7.6
17/04:30pm 12.5 12.0 12.5 100 0.0 NNE 7 19 4 10 - - 6.8
17/04:00pm 12.4 11.8 12.4 100 0.0 NNE 7 15 4 8 - - 6.2
17/03:30pm 12.2 11.6 12.2 100 0.0 NNE 7 13 4 7 - - 5.2
17/03:00pm 11.9 11.4 11.9 100 0.0 NNE 6 9 3 5 - - 4.0
17/02:30pm 11.6 11.3 11.6 100 0.0 NNE 4 9 2 5 - - 3.0
17/02:00pm 11.7 11.5 11.7 100 0.0 NNE 4 11 2 6 - - 2.4
17/01:30pm 11.5 11.2 11.5 100 0.0 NNE 4 9 2 5 - - 1.6
17/01:00pm 11.4 11.1 11.4 100 0.0 NE 4 11 2 6 - - 0.8
17/12:30pm 11.4 11.5 11.4 100 0.0 NNW 2 9 1 5 - - 0.8
17/12:00pm 11.7 11.9 11.7 100 0.0 NNW 2 6 1 3 - - 0.6
17/11:30am 11.9 12.1 11.9 100 0.0 NNW 2 4 1 2 - - 0.2
17/11:00am 11.7 11.9 11.7 100 0.0 NNW 2 6 1 3 - - 0.2
17/10:30am 11.9 12.1 11.9 100 0.0 NNW 2 6 1 3 - - 0.2
17/10:00am 11.8 11.6 11.8 100 0.0 NNW 4 6 2 3 - - 0.2
17/09:30am 11.4 11.4 11.2 99 0.1 NNW 2 9 1 5 - - 0.0
17/09:00am 11.3 10.9 11.1 99 0.1 NNW 4 7 2 4 - - 0.2
17/08:30am 11.1 10.9 10.5 96 0.3 NNW 2 4 1 2 - - 0.2
17/08:00am 11.3 10.1 9.4 88 1.0 NNW 6 9 3 5 - - 0.2
17/07:30am 11.8 10.3 8.3 79 1.8 NNW 6 9 3 5 - - 0.2
17/07:00am 12.0 10.2 7.9 76 2.1 NNW 7 17 4 9 - - 0.2
17/06:30am 12.2 10.3 7.5 73 2.4 NNW 7 15 4 8 - - 0.2
17/06:00am 12.3 10.7 7.8 74 2.3 NNW 6 11 3 6 - - 0.2
17/05:30am 12.6 11.4 7.9 73 2.4 N 4 15 2 8 - - 0.2
17/05:00am 13.2 11.1 8.1 71 2.7 N 9 15 5 8 - - 0.2
17/04:30am 13.4 11.1 7.6 68 3.0 NNE 9 15 5 8 - - 0.2
17/04:00am 13.5 11.8 7.7 68 3.0 NNE 6 9 3 5 - - 0.2
17/03:30am 13.7 12.0 7.7 67 3.1 ENE 6 7 3 4 - - 0.2
17/03:00am 13.8 13.0 8.0 68 3.0 WSW 2 6 1 3 - - 0.2
17/02:30am 13.9 13.4 7.7 66 3.2 CALM 0 0 0 0 - - 0.2
17/02:00am 13.9 12.5 7.2 64 3.5 WSW 4 6 2 3 - - 0.2
17/01:30am 14.7 13.4 5.8 55 4.5 WSW 2 4 1 2 - - 0.2
17/01:00am 14.1 13.1 7.2 63 3.6 WSW 2 2 1 1 - - 0.2
17/12:30am 14.7 13.9 6.5 58 4.2 CALM 0 0 0 0 - - 0.2
17/12:00am 14.4 13.7 7.0 61 3.8 CALM 0 2 0 1 - - 0.2
 
Date/Time
EST
Temp
°C
App
Temp
°C
Dew
Point
Rel
Hum
%
Delta-T
°C
Wind Press
QNH
hPa
Press
MSL
hPa
Rain
since 9 am
mm
Dir
 
Spd
km/h
Gust
km/h
Spd
kts
Gust
kts
16/11:30pm 14.9 13.4 7.0 59 4.1 WSW 4 9 2 5 - - 0.2
16/11:00pm 15.0 13.0 7.1 59 4.1 W 7 13 4 7 - - 0.2
16/10:30pm 14.6 12.9 7.4 62 3.7 W 6 7 3 4 - - 0.2
16/10:00pm 14.6 12.9 7.4 62 3.7 W 6 9 3 5 - - 0.2
16/09:30pm 14.8 12.9 7.4 61 3.9 WNW 7 13 4 7 - - 0.2
16/09:00pm 14.7 12.8 7.7 63 3.7 W 7 11 4 6 - - 0.2
16/08:30pm 14.8 13.0 8.1 64 3.5 WNW 7 13 4 7 - - 0.2
16/08:00pm 15.0 13.5 8.3 64 3.6 WNW 6 9 3 5 - - 0.2
16/07:30pm 15.3 13.6 8.5 64 3.6 W 7 11 4 6 - - 0.2
16/07:00pm 15.4 13.9 8.4 63 3.7 W 6 9 3 5 - - 0.2
16/06:30pm 15.7 14.4 9.1 65 3.6 WNW 6 11 3 6 - - 0.2
16/06:00pm 15.9 14.8 9.8 67 3.3 W 6 9 3 5 - - 0.2
16/05:30pm 16.4 16.0 9.6 64 3.7 W 2 6 1 3 - - 0.2
16/05:00pm 16.9 15.4 8.6 58 4.5 W 6 9 3 5 - - 0.2
16/04:30pm 17.8 16.0 7.2 50 5.6 W 6 11 3 6 - - 0.2
16/04:00pm 18.6 16.9 7.7 49 5.8 WNW 6 13 3 7 - - 0.2
16/03:30pm 20.0 17.5 6.4 41 7.2 WNW 9 17 5 9 - - 0.2
16/03:00pm 20.1 16.8 4.6 36 7.9 W 11 20 6 11 - - 0.2
16/02:30pm 20.4 17.6 5.2 37 7.9 W 9 19 5 10 - - 0.2
16/02:00pm 19.9 17.8 6.6 42 7.0 WNW 7 13 4 7 - - 0.2
16/01:30pm 19.8 16.7 3.5 34 8.1 WNW 9 20 5 11 - - 0.2
16/01:00pm 19.2 16.3 4.6 38 7.4 W 9 15 5 8 - - 0.2
16/12:30pm 18.9 16.8 6.7 45 6.4 WNW 7 15 4 8 - - 0.2
16/12:00pm 18.8 17.1 8.2 50 5.7 NW 7 13 4 7 - - 0.2
16/11:30am 18.1 15.9 7.8 51 5.5 WNW 9 15 5 8 - - 0.2
16/11:00am 18.2 17.3 10.8 62 4.2 WNW 6 17 3 9 - - 0.2
16/10:30am 16.8 16.2 11.7 72 2.9 WNW 6 11 3 6 - - 0.2
16/10:00am 16.5 15.7 11.6 73 2.8 WNW 7 13 4 7 - - 0.2
16/09:30am 16.5 16.0 10.8 69 3.2 N 4 6 2 3 - - 0.0
16/09:00am 15.8 15.9 11.4 75 2.5 N 2 6 1 3 - - 4.0
16/08:30am 15.7 15.2 10.9 73 2.7 N 4 7 2 4 - - 4.0
16/08:00am 15.2 14.9 11.4 78 2.1 N 4 6 2 3 - - 4.0
16/07:30am 14.0 13.6 11.0 82 1.7 N 4 6 2 3 - - 4.0
16/07:00am 13.9 13.4 10.9 82 1.7 N 4 6 2 3 - - 4.0
16/06:30am 14.3 13.7 10.5 78 2.1 N 4 6 2 3 - - 4.0
16/06:00am 14.3 13.4 10.5 78 2.1 N 6 9 3 5 - - 4.0
16/05:30am 14.7 14.1 10.5 76 2.3 N 4 6 2 3 - - 4.0
16/05:00am 14.7 13.8 10.5 76 2.3 N 6 9 3 5 - - 4.0
16/04:30am 14.6 13.7 10.6 77 2.2 N 6 9 3 5 - - 4.0
16/04:00am 14.7 13.8 10.7 77 2.2 N 6 11 3 6 - - 4.0
16/03:30am 14.8 13.9 10.8 77 2.2 N 6 11 3 6 - - 4.0
16/03:00am 15.0 14.2 11.0 77 2.2 N 6 9 3 5 - - 4.0
16/02:30am 15.1 14.1 10.9 76 2.3 N 7 9 4 5 - - 4.0
16/02:00am 15.2 13.9 11.2 77 2.2 NNE 9 13 5 7 - - 4.0
16/01:30am 15.1 14.2 11.3 78 2.1 NNE 7 13 4 7 - - 4.0
16/01:00am 15.0 14.3 11.4 79 2.0 NNE 6 9 3 5 - - 4.0
16/12:30am 15.2 14.3 11.4 78 2.1 NNE 7 11 4 6 - - 4.0
16/12:00am 14.8 14.1 11.4 80 1.9 NE 6 9 3 5 - - 4.0
 
Date/Time
EST
Temp
°C
App
Temp
°C
Dew
Point
Rel
Hum
%
Delta-T
°C
Wind Press
QNH
hPa
Press
MSL
hPa
Rain
since 9 am
mm
Dir
 
Spd
km/h
Gust
km/h
Spd
kts
Gust
kts
15/11:30pm 14.9 14.2 11.5 80 1.9 NNE 6 19 3 10 - - 4.0

Other Formats:

Comma delimited format used in spreadsheet applications
http://www.bom.gov.au/fwo/IDV60801/IDV60801.94878.axf

JavaScript Object Notation format (JSON) in row-major order
http://www.bom.gov.au/fwo/IDV60801/IDV60801.94878.json